Weather - Helsinki Query any day in the database

Current weather  

Weather data for a selected day (2006-01-01 -2020-12-04)
Enter date:     <-     scroll days         ->
day curves
Low temperature°C +10.023:50
High temperature°C +12.015:50
Low wind chill°C 6.223:50
Average temperature°C +11.2 
High wind speed (10 min) m/s 10.316:50
Low pressurehPa 1010.023:50
High pressurehPa 1011.018:50
Low R.H% 8122:50
High R.H% 9308:50
Day weather data as a table
Date Time Temp
°C
Chill
°C
Pressure
hPA
Wind
m/s
Hum
%
Precip
mm
2014-10-28 23:50:00 10.0  6.2  1010.0 9.8 81 -
2014-10-28 23:20:00 10.0  6.4  1010.0 8.9 87 -
2014-10-28 22:50:00 11.0  8.0  1010.0 8.0 81 -
2014-10-28 22:20:00 11.0  8.1  1010.0 7.6 87 -
2014-10-28 21:50:00 11.0  7.6  1010.0 9.4 87 -
2014-10-28 21:20:00 11.0  8.1  1010.0 7.6 87 -
2014-10-28 20:50:00 11.0  7.6  1010.0 9.4 87 -
2014-10-28 20:20:00 11.0  7.6  1010.0 9.4 87 -
2014-10-28 19:50:00 11.0  7.6  1010.0 9.4 87 -
2014-10-28 19:20:00 11.0  7.6  1010.0 9.4 87 -
2014-10-28 18:50:00 11.0  7.6  1011.0 9.4 87 -
2014-10-28 18:20:00 11.0  7.6  1011.0 9.8 87 -
2014-10-28 17:50:00 11.0  8.0  1011.0 8.0 87 -
2014-10-28 17:20:00 11.0  7.8  1011.0 8.9 87 -
2014-10-28 16:50:00 11.0  7.5  1011.0 10.3 87 -
2014-10-28 16:20:00 11.0  7.6  1011.0 9.4 87 -
2014-10-28 15:50:00 12.0  9.4  1010.0 7.6 87 -
2014-10-28 15:20:00 12.0  9.3  1010.0 8.0 87 -
2014-10-28 14:50:00 12.0  9.4  1010.0 7.6 87 -
2014-10-28 14:20:00 12.0  9.4  1010.0 7.6 87 -
2014-10-28 13:50:00 12.0  9.4  1010.0 7.2 87 -
2014-10-28 13:20:00 12.0  9.4  1010.0 7.6 87 -
2014-10-28 12:50:00 12.0  9.3  1010.0 8.0 87 -
2014-10-28 12:20:00 12.0  9.4  1010.0 7.2 87 -
2014-10-28 11:50:00 12.0  9.6  1010.0 6.7 87 -
2014-10-28 11:20:00 12.0  9.4  1010.0 7.2 87 -
2014-10-28 10:50:00 12.0  9.4  1010.0 7.6 87 -
2014-10-28 10:20:00 12.0  9.6  1010.0 6.7 87 -
2014-10-28 09:50:00 12.0  9.4  1010.0 7.2 87 -
2014-10-28 09:20:00 12.0  9.4  1010.0 7.6 87 -
2014-10-28 08:50:00 11.0  8.2  1010.0 7.2 93 -
2014-10-28 08:20:00 11.0  8.0  1010.0 8.0 93 -
2014-10-28 07:50:00 11.0  8.1  1010.0 7.6 93 -
2014-10-28 07:20:00 11.0  8.2  1010.0 7.2 93 -
2014-10-28 06:50:00 11.0  8.0  1010.0 8.0 93 -
2014-10-28 06:20:00 11.0  8.1  1010.0 7.6 93 -
2014-10-28 05:50:00 11.0  8.1  1010.0 7.6 93 -
2014-10-28 05:20:00 11.0  8.0  1010.0 8.0 93 -
2014-10-28 04:50:00 11.0  8.0  1010.0 8.0 93 -
2014-10-28 04:20:00 11.0  8.2  1010.0 7.2 93 -
2014-10-28 03:50:00 11.0  8.4  1011.0 6.3 93 -
2014-10-28 03:20:00 11.0  8.4  1011.0 6.3 93 -
2014-10-28 02:50:00 11.0  8.4  1011.0 6.3 93 -
2014-10-28 02:20:00 11.0  8.6  1011.0 5.8 93 -
2014-10-28 01:50:00 11.0  8.6  1011.0 5.8 93 -
2014-10-28 01:20:00 11.0  8.7  1011.0 5.4 93 -
2014-10-28 00:50:00 10.0  7.8  1011.0 4.5 93 -
2014-10-28 00:20:00 11.0  9.2  1011.0 4.0 93 -
Unit conversions: